Time,TemperatureF,DewpointF,PressureIn,WindDirection,WindDirectionDegrees,WindSpeedMPH,WindSpeedGustMPH,Humidity,HourlyPrecipIn,Conditions,Clouds,dailyrainin,SoftwareType,DateUTC
2013-06-14 00:00:00,65.3,61.0,29.81,NE,45,0.0,0.0,86,0.00,,,0.00,WUHU216HW,2013-06-14 05:00:00,
2013-06-14 00:05:00,65.3,61.0,29.81,NE,45,0.0,0.0,86,0.00,,,0.00,WUHU216HW,2013-06-14 05:05:00,
2013-06-14 00:10:00,65.3,60.8,29.80,NE,45,0.0,0.0,85,0.00,,,0.00,WUHU216HW,2013-06-14 05:10:00,
2013-06-14 00:15:00,65.2,60.8,29.80,NE,45,0.0,0.0,86,0.00,,,0.00,WUHU216HW,2013-06-14 05:15:00,
2013-06-14 00:20:00,65.0,60.4,29.82,NNW,338,1.6,1.6,85,0.00,,,0.00,WUHU216HW,2013-06-14 05:20:00,
2013-06-14 00:28:00,64.8,60.6,29.81,North,0,0.0,1.6,86,0.00,,,0.00,WUHU216HW,2013-06-14 05:28:00,
2013-06-14 00:33:00,64.6,60.0,29.81,North,0,0.0,0.4,85,0.00,,,0.00,WUHU216HW,2013-06-14 05:33:00,
2013-06-14 00:38:00,64.6,60.0,29.81,North,0,1.6,1.6,85,0.00,,,0.00,WUHU216HW,2013-06-14 05:38:00,
2013-06-14 00:43:00,64.6,60.0,29.81,NNE,23,0.0,1.8,85,0.00,,,0.00,WUHU216HW,2013-06-14 05:43:00,
2013-06-14 00:48:00,64.6,60.0,29.80,NNE,23,0.0,1.8,85,0.00,,,0.00,WUHU216HW,2013-06-14 05:48:00,
2013-06-14 00:53:00,64.4,59.9,29.81,NNE,23,0.7,0.7,85,0.00,,,0.00,WUHU216HW,2013-06-14 05:53:00,
2013-06-14 01:01:00,64.4,59.9,29.81,North,0,0.0,1.6,85,0.00,,,0.00,WUHU216HW,2013-06-14 06:01:00,
2013-06-14 01:06:00,64.3,59.7,29.82,North,0,0.0,1.1,85,0.00,,,0.00,WUHU216HW,2013-06-14 06:06:00,
2013-06-14 01:11:00,64.3,59.7,29.82,North,0,0.9,0.9,85,0.00,,,0.00,WUHU216HW,2013-06-14 06:11:00,
2013-06-14 01:16:00,64.1,59.5,29.81,North,0,0.0,0.9,85,0.00,,,0.00,WUHU216HW,2013-06-14 06:16:00,
2013-06-14 01:21:00,63.9,59.3,29.81,North,0,0.0,0.2,85,0.00,,,0.00,WUHU216HW,2013-06-14 06:21:00,
2013-06-14 01:26:00,63.7,59.1,29.81,NNE,23,0.4,0.7,85,0.00,,,0.00,WUHU216HW,2013-06-14 06:26:00,
2013-06-14 01:34:00,63.7,59.1,29.82,NNE,23,0.2,1.1,85,0.00,,,0.00,WUHU216HW,2013-06-14 06:34:00,
2013-06-14 01:39:00,63.5,59.0,29.81,NNE,23,0.0,1.1,85,0.00,,,0.00,WUHU216HW,2013-06-14 06:39:00,
2013-06-14 01:44:00,63.4,58.8,29.81,NNE,23,0.0,0.0,85,0.00,,,0.00,WUHU216HW,2013-06-14 06:44:00,
2013-06-14 01:49:00,63.4,58.8,29.80,NNE,23,0.2,0.4,85,0.00,,,0.00,WUHU216HW,2013-06-14 06:49:00,
2013-06-14 01:54:00,63.2,58.6,29.80,NNE,23,0.0,1.1,85,0.00,,,0.00,WUHU216HW,2013-06-14 06:54:00,
2013-06-14 01:59:00,63.0,58.4,29.80,NNE,23,0.0,1.1,85,0.00,,,0.00,WUHU216HW,2013-06-14 06:59:00,
2013-06-14 02:07:00,63.0,58.4,29.80,NNE,23,0.2,0.4,85,0.00,,,0.00,WUHU216HW,2013-06-14 07:07:00,
2013-06-14 02:12:00,62.8,58.2,29.80,North,0,0.2,1.8,85,0.00,,,0.00,WUHU216HW,2013-06-14 07:12:00,
2013-06-14 02:17:00,62.8,58.2,29.80,NNE,23,1.6,1.8,85,0.00,,,0.00,WUHU216HW,2013-06-14 07:17:00,
2013-06-14 02:22:00,62.6,58.1,29.80,NE,45,0.2,2.2,85,0.00,,,0.00,WUHU216HW,2013-06-14 07:22:00,
2013-06-14 02:27:00,62.6,58.1,29.80,NNW,338,1.8,2.2,85,0.00,,,0.00,WUHU216HW,2013-06-14 07:27:00,
2013-06-14 02:32:00,62.5,58.2,29.80,North,0,0.7,3.8,86,0.00,,,0.00,WUHU216HW,2013-06-14 07:32:00,
2013-06-14 02:40:00,62.3,58.1,29.80,NNE,23,0.4,3.8,86,0.00,,,0.00,WUHU216HW,2013-06-14 07:40:00,
2013-06-14 02:45:00,62.3,58.4,29.80,North,0,1.1,2.5,87,0.00,,,0.00,WUHU216HW,2013-06-14 07:45:00,
2013-06-14 02:50:00,62.1,58.2,29.80,NNW,338,0.9,2.5,87,0.00,,,0.00,WUHU216HW,2013-06-14 07:50:00,
2013-06-14 02:55:00,61.9,58.1,29.80,NW,315,1.3,1.8,87,0.00,,,0.00,WUHU216HW,2013-06-14 07:55:00,
2013-06-14 03:00:00,61.7,57.9,29.80,NNE,23,0.4,1.8,87,0.00,,,0.00,WUHU216HW,2013-06-14 08:00:00,
2013-06-14 03:05:00,61.6,57.7,29.80,North,0,0.4,1.6,87,0.00,,,0.00,WUHU216HW,2013-06-14 08:05:00,
2013-06-14 03:13:00,61.7,57.5,29.80,North,0,0.4,0.4,86,0.00,,,0.00,WUHU216HW,2013-06-14 08:13:00,
2013-06-14 03:18:00,61.6,57.3,29.80,NNE,23,1.1,1.3,86,0.00,,,0.00,WUHU216HW,2013-06-14 08:18:00,
2013-06-14 03:23:00,61.6,57.1,29.80,NNE,23,0.0,1.3,85,0.00,,,0.00,WUHU216HW,2013-06-14 08:23:00,
2013-06-14 03:28:00,61.4,56.9,29.80,North,0,1.1,1.1,85,0.00,,,0.00,WUHU216HW,2013-06-14 08:28:00,
2013-06-14 03:33:00,61.2,57.0,29.80,NNW,338,0.4,1.8,86,0.00,,,0.00,WUHU216HW,2013-06-14 08:33:00,
2013-06-14 03:38:00,61.2,57.0,29.80,North,0,2.0,2.5,86,0.00,,,0.00,WUHU216HW,2013-06-14 08:38:00,
2013-06-14 03:46:00,61.0,57.2,29.81,NNW,338,1.3,3.4,87,0.00,,,0.00,WUHU216HW,2013-06-14 08:46:00,
2013-06-14 03:51:00,60.8,56.7,29.81,North,0,0.0,3.4,86,0.00,,,0.00,WUHU216HW,2013-06-14 08:51:00,
2013-06-14 03:56:00,60.8,56.7,29.81,NNE,23,0.4,1.8,86,0.00,,,0.00,WUHU216HW,2013-06-14 08:56:00,
2013-06-14 04:01:00,60.7,56.8,29.82,North,0,0.0,2.0,87,0.00,,,0.00,WUHU216HW,2013-06-14 09:01:00,
2013-06-14 04:06:00,60.5,56.6,29.83,North,0,0.4,2.0,87,0.00,,,0.00,WUHU216HW,2013-06-14 09:06:00,
2013-06-14 04:11:00,60.5,56.4,29.83,NE,45,0.0,1.3,86,0.00,,,0.00,WUHU216HW,2013-06-14 09:11:00,
2013-06-14 04:19:00,60.3,56.2,29.82,NE,45,0.0,1.1,86,0.00,,,0.00,WUHU216HW,2013-06-14 09:19:00,
2013-06-14 04:24:00,60.3,56.2,29.83,NNE,23,0.0,0.9,86,0.00,,,0.00,WUHU216HW,2013-06-14 09:24:00,
2013-06-14 04:29:00,60.1,56.0,29.83,North,0,0.4,0.9,86,0.00,,,0.00,WUHU216HW,2013-06-14 09:29:00,
2013-06-14 04:34:00,60.1,56.0,29.83,North,0,0.0,0.7,86,0.00,,,0.00,WUHU216HW,2013-06-14 09:34:00,
2013-06-14 04:39:00,59.9,55.8,29.84,North,0,0.2,0.4,86,0.00,,,0.00,WUHU216HW,2013-06-14 09:39:00,
2013-06-14 04:44:00,59.8,55.6,29.84,North,0,0.0,0.7,86,0.00,,,0.00,WUHU216HW,2013-06-14 09:44:00,
2013-06-14 04:52:00,59.8,55.6,29.84,North,0,0.0,0.4,86,0.00,,,0.00,WUHU216HW,2013-06-14 09:52:00,
2013-06-14 04:57:00,59.6,55.5,29.85,North,0,0.0,0.0,86,0.00,,,0.00,WUHU216HW,2013-06-14 09:57:00,
2013-06-14 05:02:00,59.0,54.9,29.85,North,0,1.1,1.1,86,0.00,,,0.00,WUHU216HW,2013-06-14 10:02:00,
2013-06-14 05:07:00,58.9,54.7,29.85,North,0,1.8,2.5,86,0.00,,,0.00,WUHU216HW,2013-06-14 10:07:00,
2013-06-14 05:12:00,59.0,55.8,29.85,North,0,0.4,2.5,89,0.00,,,0.00,WUHU216HW,2013-06-14 10:12:00,
2013-06-14 05:17:00,59.0,55.8,29.86,NNE,23,1.1,2.2,89,0.00,,,0.00,WUHU216HW,2013-06-14 10:17:00,
2013-06-14 05:22:00,59.2,55.7,29.85,NNE,23,0.0,2.5,88,0.00,,,0.00,WUHU216HW,2013-06-14 10:22:00,
2013-06-14 05:27:00,59.2,56.0,29.85,North,0,0.7,2.5,89,0.00,,,0.00,WUHU216HW,2013-06-14 10:27:00,
2013-06-14 05:32:00,59.4,56.2,29.85,North,0,1.8,2.5,89,0.00,,,0.00,WUHU216HW,2013-06-14 10:32:00,
2013-06-14 05:37:00,59.4,55.9,29.85,NNE,23,1.1,2.5,88,0.00,,,0.00,WUHU216HW,2013-06-14 10:37:00,
2013-06-14 05:42:00,59.4,55.9,29.85,NNE,23,1.6,1.8,88,0.00,,,0.00,WUHU216HW,2013-06-14 10:42:00,
2013-06-14 05:47:00,59.2,55.4,29.85,NNE,23,0.9,2.0,87,0.00,,,0.00,WUHU216HW,2013-06-14 10:47:00,
2013-06-14 05:53:00,59.2,56.0,29.85,North,0,0.4,2.0,89,0.00,,,0.00,WUHU216HW,2013-06-14 10:53:00,
2013-06-14 05:58:00,59.2,56.0,29.85,NW,315,1.1,2.0,89,0.00,,,0.00,WUHU216HW,2013-06-14 10:58:00,
2013-06-14 06:03:00,59.2,56.0,29.85,NW,315,0.0,2.0,89,0.00,,,0.00,WUHU216HW,2013-06-14 11:03:00,
2013-06-14 06:08:00,59.4,56.2,29.85,NW,315,0.4,1.8,89,0.00,,,0.00,WUHU216HW,2013-06-14 11:08:00,
2013-06-14 06:13:00,59.6,56.3,29.86,NE,45,0.4,1.8,89,0.00,,,0.00,WUHU216HW,2013-06-14 11:13:00,
2013-06-14 06:18:00,59.9,56.4,29.85,NNE,23,0.0,1.8,88,0.00,,,0.00,WUHU216HW,2013-06-14 11:18:00,
2013-06-14 06:23:00,60.3,56.8,29.85,NNE,23,0.0,1.8,88,0.00,,,0.00,WUHU216HW,2013-06-14 11:23:00,
2013-06-14 06:28:00,60.5,57.0,29.85,NW,315,0.7,1.8,88,0.00,,,0.00,WUHU216HW,2013-06-14 11:28:00,
2013-06-14 06:33:00,60.8,57.0,29.85,NNE,23,0.9,1.8,87,0.00,,,0.00,WUHU216HW,2013-06-14 11:33:00,
2013-06-14 06:39:00,61.0,57.2,29.85,NNE,23,1.6,1.8,87,0.00,,,0.00,WUHU216HW,2013-06-14 11:39:00,
2013-06-14 06:44:00,61.6,57.7,29.85,NNE,23,0.4,2.0,87,0.00,,,0.00,WUHU216HW,2013-06-14 11:44:00,
2013-06-14 06:49:00,61.9,57.7,29.85,ENE,68,0.2,2.0,86,0.00,,,0.00,WUHU216HW,2013-06-14 11:49:00,
2013-06-14 06:54:00,62.6,58.4,29.85,ENE,68,0.0,0.7,86,0.00,,,0.00,WUHU216HW,2013-06-14 11:54:00,
2013-06-14 06:59:00,63.2,58.6,29.85,NE,45,0.7,0.9,85,0.00,,,0.00,WUHU216HW,2013-06-14 11:59:00,
2013-06-14 07:04:00,63.5,59.0,29.86,NNE,23,0.9,1.8,85,0.00,,,0.00,WUHU216HW,2013-06-14 12:04:00,
2013-06-14 07:09:00,63.7,58.8,29.86,NNE,23,1.1,1.8,84,0.00,,,0.00,WUHU216HW,2013-06-14 12:09:00,
2013-06-14 07:14:00,63.9,58.6,29.86,NNE,23,0.0,1.3,83,0.00,,,0.00,WUHU216HW,2013-06-14 12:14:00,
2013-06-14 07:19:00,64.3,59.0,29.86,NNE,23,0.9,1.1,83,0.00,,,0.00,WUHU216HW,2013-06-14 12:19:00,
2013-06-14 07:24:00,64.6,59.1,29.86,NNW,338,0.9,2.0,82,0.00,,,0.00,WUHU216HW,2013-06-14 12:24:00,
2013-06-14 07:29:00,65.2,59.5,29.86,North,0,0.4,2.0,82,0.00,,,0.00,WUHU216HW,2013-06-14 12:29:00,
2013-06-14 07:34:00,65.2,59.5,29.87,NNE,23,0.4,1.6,82,0.00,,,0.00,WUHU216HW,2013-06-14 12:34:00,
2013-06-14 07:39:00,65.9,59.6,29.87,NNW,338,0.9,2.0,80,0.00,,,0.00,WUHU216HW,2013-06-14 12:39:00,
2013-06-14 07:44:00,66.4,59.8,29.87,North,0,1.3,2.0,79,0.00,,,0.00,WUHU216HW,2013-06-14 12:44:00,
2013-06-14 07:50:00,66.8,59.8,29.87,NW,315,0.0,2.0,78,0.00,,,0.00,WUHU216HW,2013-06-14 12:50:00,
2013-06-14 07:55:00,67.3,59.5,29.87,North,0,1.1,2.2,76,0.00,,,0.00,WUHU216HW,2013-06-14 12:55:00,
2013-06-14 08:00:00,67.9,59.7,29.88,NNE,23,0.7,2.2,75,0.00,,,0.00,WUHU216HW,2013-06-14 13:00:00,
2013-06-14 08:05:00,68.4,59.8,29.88,SW,225,0.4,2.2,74,0.00,,,0.00,WUHU216HW,2013-06-14 13:05:00,
2013-06-14 08:10:00,69.1,60.5,29.88,NE,45,0.4,1.8,74,0.00,,,0.00,WUHU216HW,2013-06-14 13:10:00,
2013-06-14 08:15:00,69.5,60.4,29.88,NNW,338,0.4,1.8,73,0.00,,,0.00,WUHU216HW,2013-06-14 13:15:00,
2013-06-14 08:20:00,69.8,60.3,29.88,NNE,23,0.4,1.8,72,0.00,,,0.00,WUHU216HW,2013-06-14 13:20:00,
2013-06-14 08:25:00,70.2,59.9,29.88,NNW,338,2.2,2.2,70,0.00,,,0.00,WUHU216HW,2013-06-14 13:25:00,
2013-06-14 08:30:00,70.7,60.0,29.88,North,0,0.7,3.4,69,0.00,,,0.00,WUHU216HW,2013-06-14 13:30:00,
2013-06-14 08:35:00,70.9,59.0,29.88,North,0,3.4,3.4,66,0.00,,,0.00,WUHU216HW,2013-06-14 13:35:00,
2013-06-14 08:40:00,71.3,59.3,29.88,South,180,0.2,3.4,66,0.00,,,0.00,WUHU216HW,2013-06-14 13:40:00,
2013-06-14 08:45:00,71.6,59.7,29.88,North,0,0.4,3.4,66,0.00,,,0.00,WUHU216HW,2013-06-14 13:45:00,
2013-06-14 08:50:00,72.0,60.0,29.88,NNW,338,1.1,4.0,66,0.00,,,0.00,WUHU216HW,2013-06-14 13:50:00,
2013-06-14 08:55:00,72.4,60.8,29.88,NNE,23,0.2,4.0,67,0.00,,,0.00,WUHU216HW,2013-06-14 13:55:00,
2013-06-14 09:01:00,72.9,60.8,29.88,North,0,0.4,1.8,66,0.00,,,0.00,WUHU216HW,2013-06-14 14:01:00,
2013-06-14 09:06:00,73.6,61.1,29.88,NNE,23,1.8,2.5,65,0.00,,,0.00,WUHU216HW,2013-06-14 14:06:00,
2013-06-14 09:11:00,74.0,59.7,29.88,NE,45,0.2,4.0,61,0.00,,,0.00,WUHU216HW,2013-06-14 14:11:00,
2013-06-14 09:16:00,73.8,59.5,29.88,North,0,1.8,4.0,61,0.00,,,0.00,WUHU216HW,2013-06-14 14:16:00,
2013-06-14 09:21:00,74.2,60.3,29.88,NNE,23,0.0,3.6,62,0.00,,,0.00,WUHU216HW,2013-06-14 14:21:00,
2013-06-14 09:26:00,74.5,60.2,29.88,SSE,158,0.7,3.6,61,0.00,,,0.00,WUHU216HW,2013-06-14 14:26:00,
2013-06-14 09:31:00,74.9,59.1,29.88,NNE,23,0.4,2.9,58,0.00,,,0.00,WUHU216HW,2013-06-14 14:31:00,
2013-06-14 09:36:00,74.9,59.1,29.88,NNW,338,2.2,2.2,58,0.00,,,0.00,WUHU216HW,2013-06-14 14:36:00,
2013-06-14 09:40:00,75.2,60.5,29.88,North,0,1.3,4.0,60,0.00,,,0.00,WUHU216HW,2013-06-14 14:40:00,
2013-06-14 09:46:00,75.6,59.8,29.88,NE,45,0.4,4.0,58,0.00,,,0.00,WUHU216HW,2013-06-14 14:46:00,
2013-06-14 09:51:00,75.8,59.9,29.88,NNE,23,0.4,3.1,58,0.00,,,0.00,WUHU216HW,2013-06-14 14:51:00,
2013-06-14 09:56:00,76.3,59.4,29.88,North,0,1.3,4.7,56,0.00,,,0.00,WUHU216HW,2013-06-14 14:56:00,
2013-06-14 10:01:00,76.5,59.1,29.88,NNW,338,2.5,6.3,55,0.00,,,0.00,WUHU216HW,2013-06-14 15:01:00,
2013-06-14 10:06:00,76.9,59.4,29.89,North,0,3.6,7.6,55,0.00,,,0.00,WUHU216HW,2013-06-14 15:06:00,
2013-06-14 10:11:00,77.2,59.2,29.88,North,0,1.1,7.6,54,0.00,,,0.00,WUHU216HW,2013-06-14 15:11:00,
2013-06-14 10:16:00,77.4,59.4,29.88,NNE,23,0.4,4.0,54,0.00,,,0.00,WUHU216HW,2013-06-14 15:16:00,
2013-06-14 10:21:00,77.8,59.8,29.89,NNE,23,1.8,3.1,54,0.00,,,0.00,WUHU216HW,2013-06-14 15:21:00,
2013-06-14 10:26:00,78.1,60.1,29.89,WNW,293,4.7,7.2,54,0.00,,,0.00,WUHU216HW,2013-06-14 15:26:00,
2013-06-14 10:31:00,78.1,59.6,29.89,NNE,23,5.4,7.2,53,0.00,,,0.00,WUHU216HW,2013-06-14 15:31:00,
2013-06-14 10:37:00,78.3,59.2,29.89,NNE,23,4.7,5.8,52,0.00,,,0.00,WUHU216HW,2013-06-14 15:37:00,
2013-06-14 10:42:00,78.5,58.9,29.89,North,0,2.7,5.8,51,0.00,,,0.00,WUHU216HW,2013-06-14 15:42:00,
2013-06-14 10:47:00,78.8,59.2,29.89,NNW,338,4.7,5.8,51,0.00,,,0.00,WUHU216HW,2013-06-14 15:47:00,
2013-06-14 10:52:00,79.0,59.4,29.88,NNE,23,1.3,5.4,51,0.00,,,0.00,WUHU216HW,2013-06-14 15:52:00,
2013-06-14 10:57:00,79.2,59.1,29.89,NNW,338,5.4,5.4,50,0.00,,,0.00,WUHU216HW,2013-06-14 15:57:00,
2013-06-14 11:02:00,79.0,58.9,29.89,NNE,23,5.6,7.6,50,0.00,,,0.00,WUHU216HW,2013-06-14 16:02:00,
2013-06-14 11:07:00,79.0,58.9,29.89,NNE,23,1.1,7.6,50,0.00,,,0.00,WUHU216HW,2013-06-14 16:07:00,
2013-06-14 11:12:00,79.0,58.9,29.89,NNE,23,1.1,5.6,50,0.00,,,0.00,WUHU216HW,2013-06-14 16:12:00,
2013-06-14 11:17:00,79.2,59.1,29.88,ENE,68,1.1,5.4,50,0.00,,,0.00,WUHU216HW,2013-06-14 16:17:00,
2013-06-14 11:22:00,79.4,59.7,29.89,North,0,5.8,6.3,51,0.00,,,0.00,WUHU216HW,2013-06-14 16:22:00,
2013-06-14 11:27:00,79.7,58.9,29.89,NNE,23,4.3,6.5,49,0.00,,,0.00,WUHU216HW,2013-06-14 16:27:00,
2013-06-14 11:32:00,79.9,59.7,29.89,NNE,23,5.6,6.9,50,0.00,,,0.00,WUHU216HW,2013-06-14 16:32:00,
2013-06-14 11:37:00,80.5,59.5,29.89,North,0,1.8,8.3,49,0.00,,,0.00,WUHU216HW,2013-06-14 16:37:00,
2013-06-14 11:42:00,81.0,60.0,29.89,NNE,23,1.1,8.3,49,0.00,,,0.00,WUHU216HW,2013-06-14 16:42:00,
2013-06-14 11:47:00,81.2,59.6,29.89,NNE,23,3.6,7.8,48,0.00,,,0.00,WUHU216HW,2013-06-14 16:47:00,
2013-06-14 11:52:00,81.4,59.8,29.88,North,0,2.0,6.9,48,0.00,,,0.00,WUHU216HW,2013-06-14 16:52:00,
2013-06-14 11:58:00,81.4,59.8,29.88,West,270,2.5,6.3,48,0.00,,,0.00,WUHU216HW,2013-06-14 16:58:00,
2013-06-14 12:03:00,81.4,58.5,29.88,NW,315,1.1,5.1,46,0.00,,,0.00,WUHU216HW,2013-06-14 17:03:00,
2013-06-14 12:08:00,81.4,59.8,29.88,NNE,23,1.8,5.6,48,0.00,,,0.00,WUHU216HW,2013-06-14 17:08:00,
2013-06-14 12:13:00,81.5,58.1,29.88,NNE,23,6.3,8.7,45,0.00,,,0.00,WUHU216HW,2013-06-14 17:13:00,
2013-06-14 12:18:00,81.5,57.4,29.88,North,0,2.9,9.8,44,0.00,,,0.00,WUHU216HW,2013-06-14 17:18:00,
2013-06-14 12:23:00,82.1,59.1,29.88,North,0,2.5,9.8,46,0.00,,,0.00,WUHU216HW,2013-06-14 17:23:00,
2013-06-14 12:28:00,82.1,58.5,29.88,North,0,9.8,9.8,45,0.00,,,0.00,WUHU216HW,2013-06-14 17:28:00,
2013-06-14 12:33:00,82.4,58.9,29.88,NNW,338,3.1,9.8,45,0.00,,,0.00,WUHU216HW,2013-06-14 17:33:00,
2013-06-14 12:38:00,82.6,58.4,29.88,SSE,158,1.8,8.3,44,0.00,,,0.00,WUHU216HW,2013-06-14 17:38:00,
2013-06-14 12:43:00,82.4,58.2,29.88,North,0,1.8,3.6,44,0.00,,,0.00,WUHU216HW,2013-06-14 17:43:00,
2013-06-14 12:48:00,82.6,56.6,29.88,SE,135,1.6,6.3,41,0.00,,,0.00,WUHU216HW,2013-06-14 17:48:00,
2013-06-14 12:53:00,82.4,57.6,29.88,NNE,23,1.8,6.3,43,0.00,,,0.00,WUHU216HW,2013-06-14 17:53:00,
2013-06-14 12:59:00,82.6,57.2,29.87,NNE,23,1.3,4.9,42,0.00,,,0.00,WUHU216HW,2013-06-14 17:59:00,
2013-06-14 13:04:00,82.8,58.0,29.87,North,0,4.5,4.5,43,0.00,,,0.00,WUHU216HW,2013-06-14 18:04:00,
2013-06-14 13:09:00,83.2,58.3,29.87,NNE,23,6.3,8.1,43,0.00,,,0.00,WUHU216HW,2013-06-14 18:09:00,
2013-06-14 13:14:00,83.5,58.1,29.87,NE,45,2.5,8.1,42,0.00,,,0.00,WUHU216HW,2013-06-14 18:14:00,
2013-06-14 13:19:00,83.9,58.3,29.87,NW,315,4.0,7.6,42,0.00,,,0.00,WUHU216HW,2013-06-14 18:19:00,
2013-06-14 13:24:00,84.2,58.7,29.86,North,0,1.8,6.0,42,0.00,,,0.00,WUHU216HW,2013-06-14 18:24:00,
2013-06-14 13:30:00,83.9,58.3,29.87,North,0,0.7,5.6,42,0.00,,,0.00,WUHU216HW,2013-06-14 18:30:00,
2013-06-14 13:35:00,83.7,58.1,29.86,WNW,293,1.3,5.6,42,0.00,,,0.00,WUHU216HW,2013-06-14 18:35:00,
2013-06-14 13:40:00,84.2,58.7,29.86,North,0,2.5,4.5,42,0.00,,,0.00,WUHU216HW,2013-06-14 18:40:00,
2013-06-14 13:45:00,84.6,58.4,29.86,NE,45,0.7,7.6,41,0.00,,,0.00,WUHU216HW,2013-06-14 18:45:00,
2013-06-14 13:50:00,84.6,58.4,29.86,NNE,23,3.4,7.6,41,0.00,,,0.00,WUHU216HW,2013-06-14 18:50:00,
2013-06-14 13:55:00,84.4,58.2,29.86,NW,315,1.8,7.2,41,0.00,,,0.00,WUHU216HW,2013-06-14 18:55:00,
2013-06-14 14:00:00,84.8,58.5,29.86,SE,135,1.8,7.2,41,0.00,,,0.00,WUHU216HW,2013-06-14 19:00:00,
2013-06-14 14:05:00,85.3,59.1,29.86,SSE,158,2.7,4.5,41,0.00,,,0.00,WUHU216HW,2013-06-14 19:05:00,
2013-06-14 14:10:00,85.5,59.2,29.86,NE,45,0.4,4.0,41,0.00,,,0.00,WUHU216HW,2013-06-14 19:10:00,
2013-06-14 14:15:00,85.0,58.7,29.86,WSW,248,4.3,5.8,41,0.00,,,0.00,WUHU216HW,2013-06-14 19:15:00,
2013-06-14 14:20:00,85.0,58.1,29.85,NE,45,0.4,5.8,40,0.00,,,0.00,WUHU216HW,2013-06-14 19:20:00,
2013-06-14 14:25:00,85.0,58.7,29.85,SSW,203,1.8,4.5,41,0.00,,,0.00,WUHU216HW,2013-06-14 19:25:00,
2013-06-14 14:30:00,84.6,59.1,29.86,North,0,2.9,4.0,42,0.00,,,0.00,WUHU216HW,2013-06-14 19:30:00,
2013-06-14 14:35:00,84.8,58.5,29.86,North,0,1.1,5.1,41,0.00,,,0.00,WUHU216HW,2013-06-14 19:35:00,
2013-06-14 14:40:00,85.1,58.9,29.86,East,90,0.9,6.7,41,0.00,,,0.00,WUHU216HW,2013-06-14 19:40:00,
2013-06-14 14:45:00,84.6,58.4,29.85,NNE,23,6.3,6.7,41,0.00,,,0.00,WUHU216HW,2013-06-14 19:45:00,
2013-06-14 14:50:00,85.1,58.2,29.86,North,0,4.5,6.3,40,0.00,,,0.00,WUHU216HW,2013-06-14 19:50:00,
2013-06-14 14:55:00,85.0,58.1,29.85,North,0,1.6,7.8,40,0.00,,,0.00,WUHU216HW,2013-06-14 19:55:00,
2013-06-14 15:00:00,85.0,58.1,29.85,North,0,5.8,7.8,40,0.00,,,0.00,WUHU216HW,2013-06-14 20:00:00,
2013-06-14 15:05:00,85.3,58.4,29.85,NE,45,2.9,5.8,40,0.00,,,0.00,WUHU216HW,2013-06-14 20:05:00,
2013-06-14 15:10:00,85.5,57.0,29.86,East,90,1.1,5.8,38,0.00,,,0.00,WUHU216HW,2013-06-14 20:10:00,
2013-06-14 15:15:00,85.0,56.5,29.85,North,0,1.1,5.4,38,0.00,,,0.00,WUHU216HW,2013-06-14 20:15:00,
2013-06-14 15:21:00,85.0,56.5,29.85,North,0,1.8,4.7,38,0.00,,,0.00,WUHU216HW,2013-06-14 20:21:00,
2013-06-14 15:26:00,85.3,56.8,29.86,ENE,68,0.4,6.5,38,0.00,,,0.00,WUHU216HW,2013-06-14 20:26:00,
2013-06-14 15:31:00,85.3,57.6,29.85,North,0,3.4,6.5,39,0.00,,,0.00,WUHU216HW,2013-06-14 20:31:00,
2013-06-14 15:36:00,85.7,57.2,29.85,NE,45,1.8,6.9,38,0.00,,,0.00,WUHU216HW,2013-06-14 20:36:00,
2013-06-14 15:41:00,85.3,57.6,29.85,East,90,0.2,6.9,39,0.00,,,0.00,WUHU216HW,2013-06-14 20:41:00,
2013-06-14 15:46:00,85.9,58.1,29.85,NNE,23,2.7,4.7,39,0.00,,,0.00,WUHU216HW,2013-06-14 20:46:00,
2013-06-14 15:51:00,86.2,59.9,29.85,NE,45,1.1,3.8,41,0.00,,,0.00,WUHU216HW,2013-06-14 20:51:00,
2013-06-14 15:56:00,85.1,57.4,29.84,ESE,113,0.7,2.7,39,0.00,,,0.00,WUHU216HW,2013-06-14 20:56:00,
2013-06-14 16:01:00,84.4,57.6,29.84,North,0,2.2,4.0,40,0.00,,,0.00,WUHU216HW,2013-06-14 21:01:00,
2013-06-14 16:06:00,84.6,57.8,29.84,North,0,0.0,4.0,40,0.00,,,0.00,WUHU216HW,2013-06-14 21:06:00,
2013-06-14 16:11:00,85.3,59.1,29.84,NNE,23,3.6,3.6,41,0.00,,,0.00,WUHU216HW,2013-06-14 21:11:00,
2013-06-14 16:16:00,85.3,58.4,29.84,North,0,0.0,3.6,40,0.00,,,0.00,WUHU216HW,2013-06-14 21:16:00,
2013-06-14 16:21:00,85.3,58.4,29.84,SE,135,1.1,3.6,40,0.00,,,0.00,WUHU216HW,2013-06-14 21:21:00,
2013-06-14 16:26:00,85.3,58.4,29.84,NNW,338,3.4,3.4,40,0.00,,,0.00,WUHU216HW,2013-06-14 21:26:00,
2013-06-14 16:31:00,85.0,58.1,29.84,North,0,0.0,3.4,40,0.00,,,0.00,WUHU216HW,2013-06-14 21:31:00,
2013-06-14 16:36:00,85.3,59.1,29.84,North,0,0.0,0.0,41,0.00,,,0.00,WUHU216HW,2013-06-14 21:36:00,
2013-06-14 16:41:00,86.0,60.3,29.84,North,0,0.0,0.0,42,0.00,,,0.00,WUHU216HW,2013-06-14 21:41:00,
2013-06-14 16:46:00,86.0,60.3,29.84,North,0,0.0,0.0,42,0.00,,,0.00,WUHU216HW,2013-06-14 21:46:00,
2013-06-14 16:51:00,85.9,58.9,29.85,North,0,0.0,0.0,40,0.00,,,0.00,WUHU216HW,2013-06-14 21:51:00,
2013-06-14 16:56:00,85.5,59.2,29.85,North,0,0.0,0.0,41,0.00,,,0.00,WUHU216HW,2013-06-14 21:56:00,
2013-06-14 17:01:00,85.5,59.2,29.85,North,0,0.0,0.0,41,0.00,,,0.00,WUHU216HW,2013-06-14 22:01:00,
2013-06-14 17:06:00,85.3,59.1,29.85,North,0,0.0,0.0,41,0.00,,,0.00,WUHU216HW,2013-06-14 22:06:00,
2013-06-14 17:11:00,84.8,59.1,29.85,North,0,0.0,0.0,42,0.00,,,0.00,WUHU216HW,2013-06-14 22:11:00,
2013-06-14 17:17:00,84.4,58.9,29.85,North,0,0.0,0.0,42,0.00,,,0.00,WUHU216HW,2013-06-14 22:17:00,
2013-06-14 17:22:00,83.9,59.0,29.85,North,0,0.0,0.0,43,0.00,,,0.00,WUHU216HW,2013-06-14 22:22:00,
2013-06-14 17:27:00,83.7,58.1,29.84,North,0,0.0,0.0,42,0.00,,,0.00,WUHU216HW,2013-06-14 22:27:00,
2013-06-14 17:32:00,83.3,58.5,29.84,North,0,0.0,0.0,43,0.00,,,0.00,WUHU216HW,2013-06-14 22:32:00,
2013-06-14 17:37:00,83.0,58.2,29.84,North,0,0.0,0.0,43,0.00,,,0.00,WUHU216HW,2013-06-14 22:37:00,
2013-06-14 17:42:00,82.4,58.9,29.84,North,0,0.0,0.0,45,0.00,,,0.00,WUHU216HW,2013-06-14 22:42:00,
2013-06-14 17:47:00,81.7,58.9,29.84,NNE,23,0.0,4.0,46,0.00,,,0.00,WUHU216HW,2013-06-14 22:47:00,
2013-06-14 17:52:00,82.1,59.1,29.83,North,0,2.5,4.0,46,0.00,,,0.00,WUHU216HW,2013-06-14 22:52:00,
2013-06-14 17:57:00,81.9,60.2,29.84,NE,45,0.4,2.5,48,0.00,,,0.00,WUHU216HW,2013-06-14 22:57:00,
2013-06-14 18:02:00,81.9,60.2,29.83,NE,45,0.2,2.5,48,0.00,,,0.00,WUHU216HW,2013-06-14 23:02:00,
2013-06-14 18:07:00,81.7,60.0,29.84,NNE,23,0.0,1.6,48,0.00,,,0.00,WUHU216HW,2013-06-14 23:07:00,
2013-06-14 18:12:00,81.5,59.9,29.84,North,0,0.4,2.0,48,0.00,,,0.00,WUHU216HW,2013-06-14 23:12:00,
2013-06-14 18:17:00,81.4,59.8,29.84,NNE,23,0.9,2.0,48,0.00,,,0.00,WUHU216HW,2013-06-14 23:17:00,
2013-06-14 18:22:00,81.2,60.2,29.84,NNE,23,0.4,0.9,49,0.00,,,0.00,WUHU216HW,2013-06-14 23:22:00,
2013-06-14 18:27:00,81.0,60.0,29.84,NNE,23,0.0,0.9,49,0.00,,,0.00,WUHU216HW,2013-06-14 23:27:00,
2013-06-14 18:32:00,80.3,60.5,29.84,NE,45,0.0,0.9,51,0.00,,,0.00,WUHU216HW,2013-06-14 23:32:00,
2013-06-14 18:37:00,79.9,62.3,29.85,NE,45,0.0,0.7,55,0.00,,,0.00,WUHU216HW,2013-06-14 23:37:00,
2013-06-14 18:42:00,79.6,63.6,29.85,East,90,0.0,0.4,58,0.00,,,0.00,WUHU216HW,2013-06-14 23:42:00,
2013-06-14 18:47:00,79.2,62.6,29.85,NE,45,0.7,1.3,57,0.00,,,0.00,WUHU216HW,2013-06-14 23:47:00,
2013-06-14 18:52:00,79.4,62.3,29.85,NE,45,0.2,1.8,56,0.00,,,0.00,WUHU216HW,2013-06-14 23:52:00,
2013-06-14 18:59:00,79.4,62.3,29.85,ENE,68,0.0,1.8,56,0.00,,,0.00,WUHU216HW,2013-06-14 23:59:00,
2013-06-14 19:04:00,79.2,62.6,29.85,NE,45,0.0,0.4,57,0.00,,,0.00,WUHU216HW,2013-06-15 00:04:00,
2013-06-14 19:09:00,78.8,62.8,29.86,SE,135,0.0,1.3,58,0.00,,,0.00,WUHU216HW,2013-06-15 00:09:00,
2013-06-14 19:14:00,78.3,63.4,29.85,ENE,68,0.0,1.3,60,0.00,,,0.00,WUHU216HW,2013-06-15 00:14:00,
2013-06-14 19:19:00,77.4,62.9,29.86,ESE,113,0.0,0.4,61,0.00,,,0.00,WUHU216HW,2013-06-15 00:19:00,
2013-06-14 19:24:00,76.3,62.8,29.86,ESE,113,0.0,0.4,63,0.00,,,0.00,WUHU216HW,2013-06-15 00:24:00,
2013-06-14 19:32:00,75.4,62.8,29.86,ENE,68,0.0,0.4,65,0.00,,,0.00,WUHU216HW,2013-06-15 00:32:00,
2013-06-14 19:37:00,73.8,62.2,29.85,ENE,68,0.0,0.4,67,0.00,,,0.00,WUHU216HW,2013-06-15 00:37:00,
2013-06-14 19:42:00,73.4,62.3,29.85,ENE,68,0.0,0.4,68,0.00,,,0.00,WUHU216HW,2013-06-15 00:42:00,
2013-06-14 19:47:00,73.3,62.1,29.85,ENE,68,0.0,0.2,68,0.00,,,0.00,WUHU216HW,2013-06-15 00:47:00,
2013-06-14 19:52:00,72.9,61.7,29.85,ENE,68,0.0,0.2,68,0.00,,,0.00,WUHU216HW,2013-06-15 00:52:00,
2013-06-14 19:57:00,72.7,62.0,29.84,ENE,68,0.0,0.0,69,0.00,,,0.00,WUHU216HW,2013-06-15 00:57:00,
2013-06-14 20:05:00,72.4,61.7,29.83,SE,135,0.2,0.9,69,0.00,,,0.00,WUHU216HW,2013-06-15 01:05:00,
2013-06-14 20:10:00,71.6,61.4,29.84,SE,135,0.0,0.9,70,0.00,,,0.00,WUHU216HW,2013-06-15 01:10:00,
2013-06-14 20:15:00,71.6,60.9,29.85,NE,45,0.0,0.0,69,0.00,,,0.00,WUHU216HW,2013-06-15 01:15:00,
2013-06-14 20:20:00,71.3,60.6,29.85,North,0,0.9,1.1,69,0.00,,,0.00,WUHU216HW,2013-06-15 01:20:00,
2013-06-14 20:25:00,70.9,60.2,29.85,North,0,0.0,1.1,69,0.00,,,0.00,WUHU216HW,2013-06-15 01:25:00,
2013-06-14 20:30:00,70.6,60.3,29.85,North,0,0.0,0.2,70,0.00,,,0.00,WUHU216HW,2013-06-15 01:30:00,
2013-06-14 20:38:00,70.0,59.8,29.85,North,0,0.0,0.0,70,0.00,,,0.00,WUHU216HW,2013-06-15 01:38:00,
2013-06-14 20:43:00,69.3,60.2,29.84,NNE,23,0.0,0.0,73,0.00,,,0.00,WUHU216HW,2013-06-15 01:43:00,
2013-06-14 20:48:00,68.9,60.0,29.84,NE,45,0.0,0.0,73,0.00,,,0.00,WUHU216HW,2013-06-15 01:48:00,
2013-06-14 20:53:00,68.6,59.6,29.84,NNE,23,0.0,0.4,73,0.00,,,0.00,WUHU216HW,2013-06-15 01:53:00,
2013-06-14 20:58:00,68.6,59.6,29.84,North,0,0.4,0.4,73,0.00,,,0.00,WUHU216HW,2013-06-15 01:58:00,
2013-06-14 21:03:00,68.4,59.8,29.84,North,0,1.6,1.6,74,0.00,,,0.00,WUHU216HW,2013-06-15 02:03:00,
2013-06-14 21:11:00,68.4,59.8,29.85,North,0,1.3,1.8,74,0.00,,,0.00,WUHU216HW,2013-06-15 02:11:00,
2013-06-14 21:16:00,68.0,59.9,29.85,NE,45,0.4,1.6,75,0.00,,,0.00,WUHU216HW,2013-06-15 02:16:00,
2013-06-14 21:21:00,67.7,59.9,29.85,ENE,68,0.0,0.4,76,0.00,,,0.00,WUHU216HW,2013-06-15 02:21:00,
2013-06-14 21:26:00,67.1,59.7,29.85,ENE,68,0.0,0.4,77,0.00,,,0.00,WUHU216HW,2013-06-15 02:26:00,
2013-06-14 21:31:00,67.0,60.0,29.86,ENE,68,0.0,0.2,78,0.00,,,0.00,WUHU216HW,2013-06-15 02:31:00,
2013-06-14 21:36:00,66.6,59.6,29.86,ESE,113,0.0,0.4,78,0.00,,,0.00,WUHU216HW,2013-06-15 02:36:00,
2013-06-14 21:44:00,66.4,59.8,29.86,ESE,113,0.0,0.4,79,0.00,,,0.00,WUHU216HW,2013-06-15 02:44:00,
2013-06-14 21:49:00,66.1,59.8,29.87,ESE,113,0.0,0.0,80,0.00,,,0.00,WUHU216HW,2013-06-15 02:49:00,
2013-06-14 21:54:00,65.9,59.6,29.87,ESE,113,0.0,0.0,80,0.00,,,0.00,WUHU216HW,2013-06-15 02:54:00,
2013-06-14 21:59:00,65.2,59.2,29.87,ESE,113,0.0,0.4,81,0.00,,,0.00,WUHU216HW,2013-06-15 02:59:00,
2013-06-14 22:04:00,65.2,59.2,29.87,NE,45,0.2,0.9,81,0.00,,,0.00,WUHU216HW,2013-06-15 03:04:00,
2013-06-14 22:09:00,65.2,58.9,29.87,NNE,23,0.0,1.6,80,0.00,,,0.00,WUHU216HW,2013-06-15 03:09:00,
2013-06-14 22:14:00,65.3,59.0,29.88,NNE,23,0.9,1.6,80,0.00,,,0.00,WUHU216HW,2013-06-15 03:14:00,
2013-06-14 22:19:00,65.3,59.0,29.88,NNE,23,0.0,1.8,80,0.00,,,0.00,WUHU216HW,2013-06-15 03:19:00,
2013-06-14 22:24:00,65.2,58.9,29.88,North,0,1.1,1.8,80,0.00,,,0.00,WUHU216HW,2013-06-15 03:24:00,
2013-06-14 22:29:00,65.2,58.9,29.88,North,0,0.0,1.6,80,0.00,,,0.00,WUHU216HW,2013-06-15 03:29:00,
2013-06-14 22:34:00,65.0,59.3,29.88,NE,45,0.0,1.3,82,0.00,,,0.00,WUHU216HW,2013-06-15 03:34:00,
2013-06-14 22:39:00,64.8,58.9,29.87,NNW,338,0.2,0.4,81,0.00,,,0.00,WUHU216HW,2013-06-15 03:39:00,
2013-06-14 22:44:00,64.6,59.1,29.87,NNW,338,0.0,0.4,82,0.00,,,0.00,WUHU216HW,2013-06-15 03:44:00,
2013-06-14 22:50:00,64.3,59.0,29.87,East,90,0.0,0.4,83,0.00,,,0.00,WUHU216HW,2013-06-15 03:50:00,
2013-06-14 22:55:00,64.1,58.5,29.87,East,90,0.0,0.4,82,0.00,,,0.00,WUHU216HW,2013-06-15 03:55:00,
2013-06-14 23:00:00,63.9,58.3,29.86,ESE,113,0.0,0.2,82,0.00,,,0.00,WUHU216HW,2013-06-15 04:00:00,
2013-06-14 23:01:00,63.9,58.3,29.86,ESE,113,0.0,0.2,82,0.00,,,0.00,WUHU216HW,2013-06-15 04:01:00,
2013-06-14 23:02:00,63.9,58.3,29.86,ESE,113,0.0,0.2,82,0.00,,,0.00,WUHU216HW,2013-06-15 04:02:00,
2013-06-14 23:06:00,63.7,58.2,29.87,North,0,0.0,0.4,82,0.00,,,0.00,WUHU216HW,2013-06-15 04:06:00,
2013-06-14 23:11:00,63.7,58.4,29.87,NNE,23,0.9,1.1,83,0.00,,,0.00,WUHU216HW,2013-06-15 04:11:00,
2013-06-14 23:16:00,63.7,59.1,29.88,NNW,338,1.6,2.9,85,0.00,,,0.00,WUHU216HW,2013-06-15 04:16:00,
2013-06-14 23:21:00,63.7,59.5,29.88,NW,315,0.4,2.9,86,0.00,,,0.00,WUHU216HW,2013-06-15 04:21:00,
2013-06-14 23:26:00,63.5,58.6,29.87,NNW,338,0.0,2.0,84,0.00,,,0.00,WUHU216HW,2013-06-15 04:26:00,
2013-06-14 23:31:00,63.4,58.1,29.87,NNW,338,0.4,0.9,83,0.00,,,0.00,WUHU216HW,2013-06-15 04:31:00,
2013-06-14 23:36:00,63.2,57.9,29.88,NNW,338,0.9,0.9,83,0.00,,,0.00,WUHU216HW,2013-06-15 04:36:00,
2013-06-14 23:41:00,63.4,58.1,29.88,WNW,293,0.9,0.9,83,0.00,,,0.00,WUHU216HW,2013-06-15 04:41:00,
2013-06-14 23:46:00,63.4,58.1,29.88,NW,315,0.2,0.9,83,0.00,,,0.00,WUHU216HW,2013-06-15 04:46:00,
2013-06-14 23:51:00,63.2,57.9,29.89,NNW,338,0.0,0.9,83,0.00,,,0.00,WUHU216HW,2013-06-15 04:51:00,
2013-06-14 23:56:00,63.2,57.9,29.89,NE,45,0.4,0.9,83,0.00,,,0.00,WUHU216HW,2013-06-15 04:56:00,